MOL Maxim — V7TU3 — position and weather

sailwx.info

Track history (hours):
 
Tides and Currents Weather Stations Pressure Air Temp Water Temp Dewpoint Dewpoint Depression Visibility Wind Speed Wind Dir Waves Ship Positions

MOL Maxim

Last reported at 2018-Jan-11 12:39 UTC. Time now 2018-Jan-20 01:17 UTC.
Position N 09°42' W 079°44'.
Warning: this ship's position is 8 days out of date.

Length 302 m; draft 12.7 m.

Type: Ship (hazmat cat A). MMSI: 538003886.

Date/timePositionNaut miles runAvg speedWind from/ knotsBaromVisibWave heightAir tempDewpointWater temp
2018-Jan-11 12:39N 09°42' W 079°44'620.7
2018-Jan-11 12:23N 09°37' W 079°47'720.1
2018-Jan-11 12:00N 09°31' W 079°50'815.1
2018-Jan-11 11:31N 09°24' W 079°54'2 3.7
2018-Jan-11 11:00N 09°22' W 079°53'0 0.0
2018-Jan-11 10:30N 09°22' W 079°53'0 0.0
2018-Jan-11 10:00N 09°22' W 079°53'0 0.0
2018-Jan-11 09:30N 09°22' W 079°53'0 0.0
2018-Jan-11 09:00N 09°22' W 079°53'0 0.0
2018-Jan-11 08:30N 09°22' W 079°53'0 0.0
2018-Jan-11 08:00N 09°22' W 079°53'0 0.0
2018-Jan-11 07:30N 09°22' W 079°53'0 0.0
2018-Jan-11 07:00N 09°22' W 079°53'0 0.0
2018-Jan-11 06:30N 09°22' W 079°53'0 0.0
2018-Jan-11 06:00N 09°22' W 079°53'0 0.0
2018-Jan-11 05:30N 09°22' W 079°53'0 0.0
2018-Jan-11 05:00N 09°22' W 079°53'0 0.0
2018-Jan-11 04:30N 09°22' W 079°53'0 0.0
2018-Jan-11 03:57N 09°22' W 079°53'0 0.0
2018-Jan-11 03:30N 09°22' W 079°53'0 0.0
2018-Jan-11 03:00N 09°22' W 079°53'0 0.0
2018-Jan-11 02:30N 09°22' W 079°53'0 0.0
2018-Jan-11 02:00N 09°22' W 079°53'0 0.0
2018-Jan-11 01:30N 09°22' W 079°53'0 0.0
2018-Jan-11 01:00N 09°22' W 079°53'0 0.0
2018-Jan-11 00:30N 09°22' W 079°53'0 0.0
2018-Jan-11 00:00N 09°22' W 079°53'0 0.0
2018-Jan-10 23:30N 09°22' W 079°53'0 0.0
2018-Jan-10 23:00N 09°22' W 079°53'0 0.3
2018-Jan-10 22:31N 09°22' W 079°53'2 3.6
2018-Jan-10 22:01N 09°24' W 079°54'2 4.0
2018-Jan-10 21:30N 09°22' W 079°55'3 6.1
2018-Jan-10 21:00N 09°19' W 079°55'2 4.7
2018-Jan-10 20:30N 09°17' W 079°55'0 1.0
2018-Jan-10 20:00N 09°16' W 079°55'0 0.5
2018-Jan-10 19:30N 09°16' W 079°55'0 0.1
2018-Jan-10 19:01N 09°16' W 079°55'0 0.5
2018-Jan-10 18:30N 09°16' W 079°55'1 1.1
2018-Jan-10 18:00N 09°15' W 079°55'1 1.8
2018-Jan-10 17:30N 09°15' W 079°55'2 3.1
2018-Jan-10 17:01N 09°13' W 079°55'  
Track history (hours):
 
Tides and Currents Weather Stations Pressure Air Temp Water Temp Dewpoint Dewpoint Depression Visibility Wind Speed Wind Dir Waves Ship Positions

MOL Maxim

Last reported at 2018-Jan-11 12:39 UTC. Time now 2018-Jan-20 01:17 UTC.
Position N 09°42' W 079°44'.
Warning: this ship's position is 8 days out of date.

Length 302 m; draft 12.7 m.

Type: Ship (hazmat cat A). MMSI: 538003886.

Date/timePositionNaut miles runAvg speedWind from/ knotsBaromVisibWave heightAir tempDewpointWater temp
2018-Jan-11 12:39N 09°42' W 079°44'620.7
2018-Jan-11 12:23N 09°37' W 079°47'720.1
2018-Jan-11 12:00N 09°31' W 079°50'815.1
2018-Jan-11 11:31N 09°24' W 079°54'2 3.7
2018-Jan-11 11:00N 09°22' W 079°53'0 0.0
2018-Jan-11 10:30N 09°22' W 079°53'0 0.0
2018-Jan-11 10:00N 09°22' W 079°53'0 0.0
2018-Jan-11 09:30N 09°22' W 079°53'0 0.0
2018-Jan-11 09:00N 09°22' W 079°53'0 0.0
2018-Jan-11 08:30N 09°22' W 079°53'0 0.0
2018-Jan-11 08:00N 09°22' W 079°53'0 0.0
2018-Jan-11 07:30N 09°22' W 079°53'0 0.0
2018-Jan-11 07:00N 09°22' W 079°53'0 0.0
2018-Jan-11 06:30N 09°22' W 079°53'0 0.0
2018-Jan-11 06:00N 09°22' W 079°53'0 0.0
2018-Jan-11 05:30N 09°22' W 079°53'0 0.0
2018-Jan-11 05:00N 09°22' W 079°53'0 0.0
2018-Jan-11 04:30N 09°22' W 079°53'0 0.0
2018-Jan-11 03:57N 09°22' W 079°53'0 0.0
2018-Jan-11 03:30N 09°22' W 079°53'0 0.0
2018-Jan-11 03:00N 09°22' W 079°53'0 0.0
2018-Jan-11 02:30N 09°22' W 079°53'0 0.0
2018-Jan-11 02:00N 09°22' W 079°53'0 0.0
2018-Jan-11 01:30N 09°22' W 079°53'0 0.0
2018-Jan-11 01:00N 09°22' W 079°53'0 0.0
2018-Jan-11 00:30N 09°22' W 079°53'0 0.0
2018-Jan-11 00:00N 09°22' W 079°53'0 0.0
2018-Jan-10 23:30N 09°22' W 079°53'0 0.0
2018-Jan-10 23:00N 09°22' W 079°53'0 0.3
2018-Jan-10 22:31N 09°22' W 079°53'2 3.6
2018-Jan-10 22:01N 09°24' W 079°54'2 4.0
2018-Jan-10 21:30N 09°22' W 079°55'3 6.1
2018-Jan-10 21:00N 09°19' W 079°55'2 4.7
2018-Jan-10 20:30N 09°17' W 079°55'0 1.0
2018-Jan-10 20:00N 09°16' W 079°55'0 0.5
2018-Jan-10 19:30N 09°16' W 079°55'0 0.1
2018-Jan-10 19:01N 09°16' W 079°55'0 0.5
2018-Jan-10 18:30N 09°16' W 079°55'1 1.1
2018-Jan-10 18:00N 09°15' W 079°55'1 1.8
2018-Jan-10 17:30N 09°15' W 079°55'2 3.1
2018-Jan-10 17:01N 09°13' W 079°55'  

Dump ship's entire track history